createdAt,value
2023-05-05T00:00:46.905Z,4.57
2023-05-05T00:04:58.850Z,7.20
2023-05-05T00:09:10.501Z,5.60
2023-05-05T00:13:22.925Z,7.85
2023-05-05T00:17:34.736Z,8.85
2023-05-05T00:21:46.492Z,4.25
2023-05-05T00:25:58.239Z,4.82
2023-05-05T00:30:10.769Z,5.13
2023-05-05T00:34:22.679Z,6.70
2023-05-05T00:38:34.404Z,6.50
2023-05-05T00:42:50.690Z,5.32
2023-05-05T00:47:02.567Z,7.32
2023-05-05T00:51:16.735Z,3.83
2023-05-05T00:55:29.521Z,6.75
2023-05-05T00:59:41.917Z,5.85
2023-05-05T01:03:57.416Z,7.53
2023-05-05T01:08:26.724Z,7.45
2023-05-05T01:12:51.659Z,5.18
2023-05-05T01:17:14.862Z,5.32
2023-05-05T01:21:32.773Z,5.68
2023-05-05T01:26:05.751Z,6.60
2023-05-05T01:30:42.712Z,6.95
2023-05-05T01:35:03.244Z,12.93
2023-05-05T01:39:19.642Z,12.55
2023-05-05T01:43:35.776Z,9.85
2023-05-05T01:47:54.278Z,10.00
2023-05-05T01:52:10.419Z,10.18
2023-05-05T01:56:24.942Z,10.02
2023-05-05T02:00:37.257Z,11.95
2023-05-05T02:04:51.206Z,10.00
2023-05-05T02:09:04.178Z,10.68
2023-05-05T02:13:17.180Z,8.52
2023-05-05T02:17:30.511Z,8.43
2023-05-05T02:21:42.538Z,7.55
2023-05-05T02:25:59.709Z,7.47
2023-05-05T02:30:15.932Z,7.30
2023-05-05T02:34:29.384Z,6.97
2023-05-05T02:38:45.088Z,9.40
2023-05-05T02:42:59.881Z,9.15
2023-05-05T02:47:15.285Z,7.20
2023-05-05T02:51:27.663Z,7.55
2023-05-05T02:55:52.992Z,9.20
2023-05-05T03:00:38.502Z,7.68
2023-05-05T03:04:56.701Z,8.05
2023-05-05T03:09:21.262Z,9.23
2023-05-05T03:13:40.180Z,9.88
2023-05-05T03:17:53.825Z,9.30
2023-05-05T03:22:06.267Z,8.27
2023-05-05T03:26:19.130Z,11.43
2023-05-05T03:30:31.964Z,13.75
2023-05-05T03:34:43.838Z,11.00
2023-05-05T03:38:55.928Z,15.13
2023-05-05T03:43:08.091Z,13.02
2023-05-05T03:47:20.067Z,14.55
2023-05-05T03:51:32.240Z,13.27
2023-05-05T03:55:44.898Z,12.90
2023-05-05T03:59:56.792Z,17.83
2023-05-05T04:04:09.560Z,14.00
2023-05-05T04:08:21.596Z,14.05
2023-05-05T04:12:33.514Z,14.82
2023-05-05T04:16:45.342Z,16.38
2023-05-05T04:20:57.154Z,14.52
2023-05-05T04:25:09.635Z,14.55
2023-05-05T04:29:21.746Z,12.93
2023-05-05T04:33:33.638Z,15.38
2023-05-05T04:37:45.606Z,14.90
2023-05-05T04:41:57.889Z,12.50
2023-05-05T04:46:09.972Z,14.63
2023-05-05T04:50:22.585Z,11.07
2023-05-05T04:54:37.468Z,11.82
2023-05-05T04:58:50.014Z,10.95
2023-05-05T05:03:02.440Z,9.80
2023-05-05T05:07:15.033Z,8.38
2023-05-05T05:11:27.157Z,8.93
2023-05-05T05:15:39.001Z,10.15
2023-05-05T05:19:50.737Z,7.10
2023-05-05T05:24:02.245Z,6.75
2023-05-05T05:28:14.214Z,7.47
2023-05-05T05:32:34.061Z,7.13
2023-05-05T05:36:46.387Z,6.82
2023-05-05T05:40:58.070Z,5.25
2023-05-05T05:45:10.235Z,7.10
2023-05-05T05:49:22.632Z,6.90
2023-05-05T05:53:34.408Z,5.43
2023-05-05T05:57:46.031Z,5.20
2023-05-05T06:01:58.748Z,5.80
2023-05-05T06:06:10.687Z,6.30
2023-05-05T06:10:28.093Z,6.88
2023-05-05T06:14:46.461Z,6.03
2023-05-05T06:18:58.139Z,4.07
2023-05-05T06:23:09.778Z,4.72
2023-05-05T06:27:25.907Z,4.45
2023-05-05T06:31:37.836Z,5.97
2023-05-05T06:35:51.901Z,5.70
2023-05-05T06:40:03.749Z,6.57
2023-05-05T06:44:15.298Z,4.75
2023-05-05T06:48:27.003Z,5.93
2023-05-05T06:52:38.626Z,5.00
2023-05-05T06:56:50.279Z,4.03
2023-05-05T07:01:02.085Z,5.35
2023-05-05T07:05:13.721Z,4.38
2023-05-05T07:09:25.298Z,4.45
2023-05-05T07:13:36.865Z,4.05
2023-05-05T07:17:48.680Z,4.45
2023-05-05T07:22:00.208Z,6.07
2023-05-05T07:26:12.167Z,5.90
2023-05-05T07:30:25.873Z,4.28
2023-05-05T07:34:38.217Z,6.15
2023-05-05T07:38:49.854Z,8.02
2023-05-05T07:43:01.538Z,4.80
2023-05-05T07:47:13.161Z,4.90
2023-05-05T07:51:25.051Z,6.45
2023-05-05T07:55:36.701Z,7.22
2023-05-05T07:59:48.347Z,4.30
2023-05-05T08:03:59.980Z,5.93
2023-05-05T08:08:11.580Z,3.83
2023-05-05T08:12:23.117Z,4.00
2023-05-05T08:16:34.898Z,4.75
2023-05-05T08:20:46.819Z,4.63
2023-05-05T08:24:58.745Z,5.57
2023-05-05T08:29:10.279Z,4.80
2023-05-05T08:33:21.853Z,4.97
2023-05-05T08:37:34.711Z,5.75
2023-05-05T08:41:46.368Z,5.15
2023-05-05T08:45:58.857Z,3.80
2023-05-05T08:50:11.322Z,4.13
2023-05-05T08:54:27.159Z,3.92
2023-05-05T08:58:38.833Z,2.10
2023-05-05T09:02:50.705Z,1.48
2023-05-05T09:07:02.944Z,2.25
2023-05-05T09:11:14.537Z,3.28
2023-05-05T09:15:28.232Z,2.78
2023-05-05T09:20:08.738Z,2.40
2023-05-05T09:24:20.253Z,2.45
2023-05-05T09:28:32.373Z,3.00
2023-05-05T09:32:52.329Z,3.67
2023-05-05T09:37:04.126Z,4.55
2023-05-05T09:41:23.489Z,3.35
2023-05-05T09:45:35.099Z,3.63
2023-05-05T09:49:58.562Z,5.00
2023-05-05T09:54:30.262Z,4.50
2023-05-05T09:58:42.235Z,3.33
2023-05-05T10:03:02.548Z,3.30
2023-05-05T10:07:24.165Z,3.45
2023-05-05T10:11:36.346Z,3.53
2023-05-05T10:15:51.366Z,4.55
2023-05-05T10:20:03.938Z,3.55
2023-05-05T10:24:24.116Z,6.13
2023-05-05T10:28:48.658Z,5.32
2023-05-05T10:33:30.842Z,3.70
2023-05-05T10:37:44.710Z,3.38
2023-05-05T10:42:01.793Z,4.68
2023-05-05T10:46:13.593Z,5.97
2023-05-05T10:50:38.460Z,3.13
2023-05-05T10:55:13.874Z,2.58
2023-05-05T10:59:37.768Z,4.10
2023-05-05T11:03:49.704Z,3.03
2023-05-05T11:08:30.689Z,3.65
2023-05-05T11:12:57.939Z,1.75
2023-05-05T11:17:47.930Z,5.45
2023-05-05T11:22:01.729Z,6.45
2023-05-05T11:26:14.350Z,10.68
2023-05-05T11:30:26.131Z,2.75
2023-05-05T11:34:48.642Z,4.70
2023-05-05T11:39:45.425Z,1.95
2023-05-05T11:44:10.440Z,0.55
2023-05-05T11:48:27.101Z,0.50
2023-05-05T11:52:38.825Z,1.42
2023-05-05T11:56:54.367Z,1.77
2023-05-05T12:01:09.375Z,1.02
2023-05-05T12:05:21.339Z,3.08
2023-05-05T12:09:32.966Z,0.75
2023-05-05T12:13:44.642Z,1.98
2023-05-05T12:17:56.432Z,4.20
2023-05-05T12:22:08.086Z,0.57
2023-05-05T12:26:30.050Z,2.75
2023-05-05T12:30:41.653Z,0.95
2023-05-05T12:34:55.256Z,0.90
2023-05-05T12:39:07.044Z,2.45
2023-05-05T12:43:35.130Z,1.52
2023-05-05T12:47:46.785Z,1.50
2023-05-05T12:51:58.512Z,1.52
2023-05-05T12:56:40.551Z,1.65
2023-05-05T13:01:11.282Z,0.80
2023-05-05T13:05:31.515Z,1.58
2023-05-05T13:09:43.371Z,3.00
2023-05-05T13:13:55.049Z,1.20
2023-05-05T13:18:06.651Z,3.10
2023-05-05T13:22:18.376Z,1.45
2023-05-05T13:26:30.030Z,2.08
2023-05-05T13:30:41.886Z,2.97
2023-05-05T13:34:53.562Z,1.10
2023-05-05T13:39:05.309Z,0.70
2023-05-05T13:43:16.970Z,1.50
2023-05-05T13:47:29.297Z,1.10
2023-05-05T13:51:41.035Z,1.08
2023-05-05T13:55:52.684Z,1.65
2023-05-05T14:00:04.790Z,1.42
2023-05-05T14:04:19.171Z,2.88
2023-05-05T14:08:30.769Z,1.25
2023-05-05T14:12:42.344Z,0.88
2023-05-05T14:16:54.115Z,0.88
2023-05-05T14:21:05.874Z,1.25
2023-05-05T14:25:17.620Z,1.38
2023-05-05T14:29:29.268Z,1.00
2023-05-05T14:33:40.894Z,1.75
2023-05-05T14:37:52.471Z,4.22
2023-05-05T14:42:04.351Z,2.03
2023-05-05T14:46:16.162Z,1.05
2023-05-05T14:50:27.818Z,1.20
2023-05-05T14:54:39.530Z,2.05
2023-05-05T14:58:51.332Z,1.77
2023-05-05T15:03:03.116Z,5.20
2023-05-05T15:07:14.878Z,1.58
2023-05-05T15:11:26.651Z,1.52
2023-05-05T15:15:38.390Z,2.70
2023-05-05T15:19:50.161Z,1.38
2023-05-05T15:24:02.041Z,1.75
2023-05-05T15:28:13.783Z,1.30
2023-05-05T15:32:25.706Z,1.98
2023-05-05T15:36:37.453Z,1.15
2023-05-05T15:40:50.257Z,0.85
2023-05-05T15:45:02.087Z,1.27
2023-05-05T15:49:13.690Z,1.00
2023-05-05T15:53:26.728Z,1.17
2023-05-05T15:57:41.433Z,1.38
2023-05-05T16:01:53.173Z,1.60
2023-05-05T16:06:04.924Z,1.95
2023-05-05T16:10:18.595Z,0.98
2023-05-05T16:14:34.084Z,0.75
2023-05-05T16:18:45.776Z,0.75
2023-05-05T16:22:57.576Z,1.40
2023-05-05T16:27:09.268Z,0.70
2023-05-05T16:31:21.107Z,3.25
2023-05-05T16:35:32.854Z,0.77
2023-05-05T16:39:44.679Z,0.63
2023-05-05T16:43:56.373Z,0.95
2023-05-05T16:48:09.201Z,0.70
2023-05-05T16:52:20.943Z,1.13
2023-05-05T16:56:32.514Z,0.80
2023-05-05T17:00:46.719Z,0.52
2023-05-05T17:04:58.403Z,1.25
2023-05-05T17:09:10.012Z,1.00
2023-05-05T17:13:22.996Z,0.90
2023-05-05T17:17:34.889Z,0.80
2023-05-05T17:21:46.480Z,1.55
2023-05-05T17:26:00.899Z,0.82
2023-05-05T17:30:12.855Z,0.68
2023-05-05T17:34:24.423Z,0.68
2023-05-05T17:38:35.946Z,1.00
2023-05-05T17:42:47.620Z,1.85
2023-05-05T17:46:59.355Z,1.48
2023-05-05T17:51:11.450Z,0.65
2023-05-05T17:55:23.155Z,0.40
2023-05-05T17:59:35.282Z,0.50
2023-05-05T18:03:47.009Z,0.60
2023-05-05T18:07:58.575Z,0.60
2023-05-05T18:12:13.356Z,0.60
2023-05-05T18:16:27.363Z,0.80
2023-05-05T18:20:41.742Z,0.75
2023-05-05T18:29:53.931Z,1.85
2023-05-05T18:34:05.894Z,1.35
2023-05-05T18:39:20.215Z,1.20
2023-05-05T18:43:34.921Z,2.35
2023-05-05T18:47:46.863Z,4.80
2023-05-05T19:19:26.882Z,4.40
2023-05-05T19:23:40.905Z,3.50
2023-05-05T19:46:39.512Z,3.47
2023-05-05T19:50:51.304Z,3.40
2023-05-05T20:36:24.931Z,3.17
2023-05-05T20:59:29.737Z,5.57
2023-05-05T21:04:54.763Z,8.48
2023-05-05T21:10:22.869Z,5.40
2023-05-05T21:15:22.807Z,3.70
2023-05-05T21:26:22.130Z,5.65
2023-05-05T21:30:59.444Z,5.07
2023-05-05T21:35:28.415Z,4.68
2023-05-05T21:40:38.649Z,5.15
2023-05-05T21:46:33.879Z,8.60
2023-05-05T21:57:27.506Z,6.93
2023-05-05T22:02:23.432Z,9.10
2023-05-05T22:13:00.218Z,11.95
2023-05-05T22:18:19.416Z,13.60
2023-05-05T22:23:24.759Z,12.38
2023-05-05T22:38:11.997Z,7.32
2023-05-05T22:42:49.930Z,6.82
2023-05-05T22:53:01.860Z,7.75
2023-05-05T22:57:51.346Z,6.65
2023-05-05T23:02:34.535Z,7.03
2023-05-05T23:07:40.114Z,6.95
2023-05-05T23:12:06.558Z,7.93
2023-05-05T23:21:24.153Z,6.47
2023-05-05T23:25:52.560Z,8.27
2023-05-05T23:30:26.622Z,9.40
2023-05-05T23:50:36.076Z,9.02
2023-05-05T23:55:25.792Z,7.05
2023-05-05T23:59:43.472Z,6.50
